Time;durP1;ratioP1;P1;durP2;ratioP2;P2;SDS_P1;SDS_P2;PMS_P1;PMS_P2;Temp;Humidity;BMP_temperature;BMP_pressure;BME280_temperature;BME280_humidity;BME280_pressure;Samples;Min_cycle;Max_cycle;Signal;HPM_P1;HPM_P2
2021/07/26 00:02:03;;;;;;;8.80;6.45;;;16.80;99.90;;;;;;4865986;29;20036;-81
2021/07/26 00:04:29;;;;;;;10.38;6.80;;;16.80;99.90;;;;;;4910508;29;20067;-81
2021/07/26 00:06:55;;;;;;;8.57;6.70;;;16.90;99.90;;;;;;4884711;29;20039;-81
2021/07/26 00:09:22;;;;;;;8.93;6.65;;;16.90;99.90;;;;;;4875614;29;20064;-81
2021/07/26 00:11:48;;;;;;;7.13;5.53;;;16.80;99.90;;;;;;4890914;29;20526;-81
2021/07/26 00:14:13;;;;;;;7.75;5.75;;;16.70;99.90;;;;;;4890038;29;20036;-81
2021/07/26 00:16:39;;;;;;;9.35;6.10;;;16.70;99.90;;;;;;4879475;29;20036;-82
2021/07/26 00:19:05;;;;;;;8.05;6.40;;;16.60;99.90;;;;;;4872629;29;20108;-80
2021/07/26 00:21:31;;;;;;;9.50;6.53;;;16.60;99.90;;;;;;4907627;29;20048;-81
2021/07/26 00:23:57;;;;;;;13.32;8.27;;;16.60;99.90;;;;;;4880008;29;20044;-80
2021/07/26 00:26:25;;;;;;;8.10;5.70;;;16.60;99.90;;;;;;4855915;29;20047;-80
2021/07/26 00:28:53;;;;;;;8.25;6.63;;;16.60;99.90;;;;;;4862111;29;20044;-80
2021/07/26 00:31:23;;;;;;;10.25;5.72;;;16.60;99.90;;;;;;4874938;29;20180;-80
2021/07/26 00:34:07;;;;;;;9.60;5.93;;;16.60;99.90;;;;;;4857713;29;20052;-80
2021/07/26 00:36:43;;;;;;;8.40;6.03;;;16.60;99.90;;;;;;4904751;29;20071;-80
2021/07/26 00:39:12;;;;;;;9.95;7.97;;;16.70;99.90;;;;;;4891295;29;20067;-80
2021/07/26 00:41:39;;;;;;;7.93;6.90;;;16.60;99.90;;;;;;4893974;29;20120;-80
2021/07/26 00:44:05;;;;;;;11.88;6.75;;;16.60;99.90;;;;;;4909368;29;20103;-81
2021/07/26 00:46:32;;;;;;;12.32;6.35;;;16.70;99.90;;;;;;4910497;29;20094;-81
2021/07/26 00:49:00;;;;;;;7.32;5.93;;;16.70;99.90;;;;;;4876693;29;20040;-80
2021/07/26 00:51:26;;;;;;;9.18;6.07;;;16.60;99.90;;;;;;4881379;29;20506;-80
2021/07/26 00:53:53;;;;;;;7.63;5.70;;;16.60;99.90;;;;;;4877505;29;20453;-80
2021/07/26 00:56:20;;;;;;;7.65;5.20;;;16.60;99.90;;;;;;4877452;29;20052;-80
2021/07/26 00:58:46;;;;;;;8.20;5.80;;;16.70;99.90;;;;;;4895063;29;20180;-84
2021/07/26 01:01:14;;;;;;;9.05;5.90;;;16.60;99.90;;;;;;4891991;29;20044;-84
2021/07/26 01:03:44;;;;;;;7.60;5.75;;;16.60;99.90;;;;;;4910009;29;20099;-84
2021/07/26 01:06:15;;;;;;;10.70;7.20;;;16.70;99.90;;;;;;4909658;29;20048;-80
2021/07/26 01:08:41;;;;;;;9.85;7.30;;;16.60;99.90;;;;;;4889645;29;20045;-81
2021/07/26 01:11:09;;;;;;;10.38;7.00;;;16.60;99.90;;;;;;4882248;29;20050;-81
2021/07/26 01:13:35;;;;;;;7.97;5.80;;;16.60;99.90;;;;;;4894034;29;20127;-81
2021/07/26 01:16:01;;;;;;;10.32;6.03;;;16.50;99.90;;;;;;4894460;29;20107;-81
2021/07/26 01:18:28;;;;;;;9.05;6.70;;;16.50;99.90;;;;;;4891530;29;20044;-80
2021/07/26 01:20:55;;;;;;;7.40;6.20;;;16.50;99.90;;;;;;4878075;29;20123;-81
2021/07/26 01:23:23;;;;;;;7.60;5.63;;;16.50;99.90;;;;;;4895739;29;20036;-81
2021/07/26 01:25:49;;;;;;;7.60;6.32;;;16.50;99.90;;;;;;4893460;29;20040;-81
2021/07/26 01:28:20;;;;;;;7.95;6.40;;;16.50;99.90;;;;;;4908244;29;20040;-81
2021/07/26 01:30:48;;;;;;;10.85;8.00;;;16.50;99.90;;;;;;4911056;29;20574;-82
2021/07/26 01:33:16;;;;;;;21.83;10.02;;;16.40;99.90;;;;;;4910595;29;20103;-82
2021/07/26 01:35:45;;;;;;;14.07;10.07;;;16.40;99.90;;;;;;4895155;29;20059;-82
2021/07/26 01:38:11;;;;;;;15.80;9.30;;;16.40;99.90;;;;;;4876613;29;20076;-82
2021/07/26 01:40:40;;;;;;;10.65;6.63;;;16.40;99.90;;;;;;4895218;29;20400;-82
2021/07/26 01:43:09;;;;;;;9.80;7.55;;;16.30;99.90;;;;;;4908804;29;20484;-82
2021/07/26 01:45:37;;;;;;;11.50;7.70;;;16.30;99.90;;;;;;4914378;29;20043;-82
2021/07/26 01:48:34;;;;;;;7.10;6.15;;;16.40;99.90;;;;;;4863415;29;20048;-83
2021/07/26 01:51:11;;;;;;;8.43;7.30;;;16.40;99.90;;;;;;4911410;29;20040;-83
2021/07/26 01:53:36;;;;;;;20.33;11.52;;;16.40;99.90;;;;;;4914496;29;20488;-82
2021/07/26 01:56:02;;;;;;;9.30;8.00;;;16.40;99.90;;;;;;4863293;29;20068;-83
2021/07/26 01:58:28;;;;;;;14.27;9.90;;;16.40;99.90;;;;;;4894591;29;20512;-83
2021/07/26 02:00:54;;;;;;;9.75;8.13;;;16.40;99.90;;;;;;4877496;29;20036;-83
2021/07/26 02:03:20;;;;;;;9.77;7.63;;;16.40;99.90;;;;;;4895279;29;20151;-83
2021/07/26 02:05:46;;;;;;;22.30;14.52;;;16.40;99.90;;;;;;4896592;29;20064;-83
2021/07/26 02:08:12;;;;;;;27.48;17.65;;;16.40;99.90;;;;;;4860255;29;20032;-83
2021/07/26 02:10:41;;;;;;;22.17;15.73;;;16.40;99.90;;;;;;4894887;29;20043;-82
2021/07/26 02:13:10;;;;;;;29.25;18.67;;;16.40;99.90;;;;;;4892443;29;20407;-83
2021/07/26 02:15:36;;;;;;;14.02;11.20;;;16.40;99.90;;;;;;4896994;29;20100;-83
2021/07/26 02:18:01;;;;;;;14.20;12.48;;;16.40;99.90;;;;;;4880289;29;20677;-83
2021/07/26 02:20:27;;;;;;;13.38;11.98;;;16.40;99.90;;;;;;4878781;29;20051;-83
2021/07/26 02:22:53;;;;;;;24.30;16.63;;;16.30;99.90;;;;;;4883009;29;20032;-82
2021/07/26 02:25:20;;;;;;;16.83;12.95;;;16.30;99.90;;;;;;4921803;29;20032;-82
2021/07/26 02:27:46;;;;;;;21.00;14.88;;;16.30;99.90;;;;;;4879000;29;20052;-82
2021/07/26 02:30:15;;;;;;;35.97;22.27;;;16.30;99.90;;;;;;4890997;29;20055;-81
2021/07/26 02:32:41;;;;;;;56.08;24.98;;;16.30;99.90;;;;;;4881150;29;20076;-81
2021/07/26 02:35:08;;;;;;;14.65;12.43;;;16.30;99.90;;;;;;4899520;29;20051;-82
2021/07/26 02:37:35;;;;;;;40.55;21.27;;;16.30;99.90;;;;;;4893775;29;20036;-81
2021/07/26 02:40:02;;;;;;;18.45;16.50;;;16.30;99.90;;;;;;4895484;29;20514;-81
2021/07/26 02:42:28;;;;;;;17.50;15.07;;;16.30;99.90;;;;;;4910390;29;20063;-81
2021/07/26 02:44:54;;;;;;;22.15;18.52;;;16.30;99.90;;;;;;4896473;29;20123;-80
2021/07/26 02:47:19;;;;;;;20.08;17.15;;;16.40;99.90;;;;;;4909548;29;20144;-81
2021/07/26 02:49:45;;;;;;;20.45;18.27;;;16.40;99.90;;;;;;4895299;29;20502;-80
2021/07/26 02:52:11;;;;;;;22.13;19.90;;;16.40;99.90;;;;;;4899544;29;20043;-80
2021/07/26 02:54:37;;;;;;;60.42;28.75;;;16.40;99.90;;;;;;4866753;29;20048;-81
2021/07/26 02:57:03;;;;;;;50.60;26.80;;;16.40;99.90;;;;;;4869589;29;20112;-79
2021/07/26 02:59:29;;;;;;;54.58;27.90;;;16.40;99.90;;;;;;4890699;29;20146;-79
2021/07/26 03:01:55;;;;;;;24.08;21.48;;;16.40;99.90;;;;;;4871250;29;20044;-81
2021/07/26 03:04:21;;;;;;;20.88;18.77;;;16.40;99.90;;;;;;4877463;29;20069;-80
2021/07/26 03:06:47;;;;;;;34.85;22.55;;;16.40;99.90;;;;;;4893508;29;20124;-79
2021/07/26 03:09:12;;;;;;;21.63;17.95;;;16.40;99.90;;;;;;4857665;29;20495;-79
2021/07/26 03:11:39;;;;;;;23.02;20.52;;;16.40;99.90;;;;;;4861948;29;20048;-78
2021/07/26 03:14:05;;;;;;;28.42;23.92;;;16.40;99.90;;;;;;4896871;29;20043;-78
2021/07/26 03:16:31;;;;;;;38.03;22.67;;;16.40;99.90;;;;;;4863185;29;20984;-78
2021/07/26 03:18:57;;;;;;;68.72;29.77;;;16.40;99.90;;;;;;4879782;29;20087;-78
2021/07/26 03:21:23;;;;;;;19.48;17.55;;;16.40;99.90;;;;;;4873961;29;20400;-78
2021/07/26 03:23:50;;;;;;;21.90;18.42;;;16.40;99.90;;;;;;4877388;29;20052;-78
2021/07/26 03:26:16;;;;;;;20.63;17.55;;;16.40;99.90;;;;;;4905209;29;20044;-78
2021/07/26 03:28:42;;;;;;;74.57;21.60;;;16.30;99.90;;;;;;4878596;29;20420;-78
2021/07/26 03:31:09;;;;;;;18.95;16.95;;;16.30;99.90;;;;;;4864650;29;20132;-78
2021/07/26 03:33:35;;;;;;;21.38;18.52;;;16.30;99.90;;;;;;4892371;29;20044;-79
2021/07/26 03:36:01;;;;;;;21.60;19.30;;;16.30;99.90;;;;;;4883075;29;20070;-78
2021/07/26 03:38:28;;;;;;;26.55;23.17;;;16.30;99.90;;;;;;4884133;29;20483;-78
2021/07/26 03:40:53;;;;;;;20.10;17.95;;;16.30;99.90;;;;;;4892900;29;20044;-79
2021/07/26 03:43:20;;;;;;;16.52;14.73;;;16.40;99.90;;;;;;4883415;29;20056;-78
2021/07/26 03:45:46;;;;;;;11.15;10.05;;;16.30;99.90;;;;;;4906195;29;20059;-78
2021/07/26 03:48:14;;;;;;;14.98;13.57;;;16.30;99.90;;;;;;4901437;29;20044;-78
2021/07/26 03:50:50;;;;;;;19.00;14.93;;;16.30;99.90;;;;;;4875851;29;20054;-78
2021/07/26 03:53:19;;;;;;;15.77;13.90;;;16.20;99.90;;;;;;4879696;29;20051;-78
2021/07/26 03:55:46;;;;;;;15.13;13.52;;;16.20;99.90;;;;;;4903851;29;20047;-78
2021/07/26 03:58:11;;;;;;;19.00;16.95;;;16.20;99.90;;;;;;4893066;29;20048;-78
2021/07/26 04:00:37;;;;;;;16.38;14.57;;;16.20;99.90;;;;;;4881971;29;20044;-78
2021/07/26 04:05:39;;;;;;;23.45;20.48;;;16.20;99.90;;;;;;4893577;29;20135;-79
2021/07/26 04:08:07;;;;;;;19.23;17.27;;;16.30;99.90;;;;;;4876761;29;20044;-79
2021/07/26 04:10:35;;;;;;;21.90;19.55;;;16.30;99.90;;;;;;4871056;29;20052;-79
2021/07/26 04:13:04;;;;;;;17.10;15.45;;;16.30;99.90;;;;;;4873224;29;20040;-79
2021/07/26 04:15:31;;;;;;;19.13;17.13;;;16.30;99.90;;;;;;4903730;29;20068;-83
2021/07/26 04:17:57;;;;;;;21.65;18.67;;;16.30;99.90;;;;;;4880437;29;20044;-84
2021/07/26 04:20:23;;;;;;;20.25;17.58;;;16.30;99.90;;;;;;4895250;29;20056;-83
2021/07/26 04:22:48;;;;;;;18.02;16.23;;;16.40;99.90;;;;;;4883374;29;20050;-83
2021/07/26 04:25:15;;;;;;;19.05;17.15;;;16.30;99.90;;;;;;4893383;29;20091;-82
2021/07/26 04:27:41;;;;;;;21.08;18.75;;;16.30;99.90;;;;;;4893458;29;20075;-83
2021/07/26 04:30:15;;;;;;;18.05;16.20;;;16.40;99.90;;;;;;4888619;29;20074;-83
2021/07/26 04:32:45;;;;;;;21.35;19.02;;;16.40;99.90;;;;;;4919502;29;20050;-83
2021/07/26 04:35:13;;;;;;;20.20;18.20;;;16.50;99.90;;;;;;4915275;29;20056;-83
2021/07/26 04:37:40;;;;;;;19.65;17.65;;;16.50;99.90;;;;;;4909638;29;20036;-83
2021/07/26 04:40:08;;;;;;;18.67;16.65;;;16.50;99.90;;;;;;4914656;29;20099;-83
2021/07/26 04:42:39;;;;;;;25.10;22.60;;;16.60;99.90;;;;;;4897363;29;20583;-82
2021/07/26 04:45:07;;;;;;;32.55;24.90;;;16.60;99.90;;;;;;4881730;29;20115;-83
2021/07/26 04:47:33;;;;;;;34.58;28.55;;;16.70;99.90;;;;;;4921798;29;20062;-83
2021/07/26 04:49:59;;;;;;;30.02;26.48;;;16.70;99.90;;;;;;4896512;29;20076;-83
2021/07/26 04:52:26;;;;;;;28.05;25.20;;;16.80;99.90;;;;;;4895667;29;20052;-82
2021/07/26 04:54:53;;;;;;;35.75;31.20;;;16.80;99.90;;;;;;4905891;29;20040;-82
2021/07/26 04:57:23;;;;;;;32.05;28.83;;;16.90;99.90;;;;;;4870344;29;20060;-83
2021/07/26 04:59:49;;;;;;;31.42;28.10;;;17.00;99.90;;;;;;4878202;29;20107;-82
2021/07/26 05:02:15;;;;;;;49.97;38.00;;;17.00;99.90;;;;;;4873837;29;20104;-82
2021/07/26 05:04:40;;;;;;;34.42;30.80;;;17.10;99.90;;;;;;4878823;29;20040;-82
2021/07/26 05:07:06;;;;;;;31.80;28.63;;;17.10;99.90;;;;;;4905240;29;20048;-82
2021/07/26 05:09:42;;;;;;;26.85;24.17;;;17.20;99.90;;;;;;4896882;29;20107;-82
2021/07/26 05:12:15;;;;;;;30.90;27.73;;;17.20;99.90;;;;;;4893251;29;20067;-81
2021/07/26 05:14:42;;;;;;;32.10;28.80;;;17.20;99.90;;;;;;4911973;29;20044;-79
2021/07/26 05:17:09;;;;;;;37.45;33.08;;;17.30;99.90;;;;;;4912801;29;20128;-79
2021/07/26 05:19:35;;;;;;;35.40;31.73;;;17.30;99.90;;;;;;4852121;29;20048;-80
2021/07/26 05:22:02;;;;;;;32.60;29.33;;;17.30;99.90;;;;;;4902996;29;20585;-80
2021/07/26 05:24:28;;;;;;;40.45;33.85;;;17.30;99.90;;;;;;4911842;29;20072;-79
2021/07/26 05:27:02;;;;;;;38.30;33.72;;;17.40;99.90;;;;;;4880412;29;20119;-79
2021/07/26 05:29:29;;;;;;;30.17;27.08;;;17.40;99.90;;;;;;4905053;29;20071;-80
2021/07/26 05:31:55;;;;;;;42.95;35.42;;;17.40;99.90;;;;;;4873693;29;20048;-78
2021/07/26 05:34:21;;;;;;;32.97;29.48;;;17.40;99.90;;;;;;4894322;29;20081;-79
2021/07/26 05:36:47;;;;;;;31.30;27.98;;;17.40;99.90;;;;;;4909256;29;20051;-79
2021/07/26 05:39:13;;;;;;;34.75;31.20;;;17.40;99.90;;;;;;4879155;29;20048;-79
2021/07/26 05:41:39;;;;;;;31.77;28.58;;;17.50;99.90;;;;;;4884391;29;20475;-79
2021/07/26 05:44:05;;;;;;;31.55;28.45;;;17.50;99.90;;;;;;4873357;29;20064;-80
2021/07/26 05:46:31;;;;;;;32.08;28.85;;;17.50;99.90;;;;;;4849018;29;20136;-81
2021/07/26 05:48:58;;;;;;;32.28;29.08;;;17.50;99.90;;;;;;4891145;29;20044;-79
2021/07/26 05:51:23;;;;;;;37.83;32.88;;;17.50;99.90;;;;;;4880503;29;20040;-79
2021/07/26 05:53:50;;;;;;;27.98;25.25;;;17.60;99.90;;;;;;4884676;29;20047;-78
2021/07/26 05:56:16;;;;;;;28.55;25.65;;;17.60;99.90;;;;;;4890003;29;20038;-77
2021/07/26 05:58:45;;;;;;;34.30;30.88;;;17.70;99.90;;;;;;4886577;29;20411;-77
2021/07/26 06:01:57;;;;;;;34.13;30.63;;;17.70;99.90;;;;;;4858920;29;20113;-77
2021/07/26 06:03:58;;;;;;;33.88;30.25;;;17.80;99.90;;;;;;4904381;29;20452;-77
2021/07/26 06:06:24;;;;;;;29.20;26.20;;;17.80;99.90;;;;;;4879395;29;20043;-77
2021/07/26 06:08:50;;;;;;;30.08;27.08;;;17.90;99.90;;;;;;4871881;29;20072;-78
2021/07/26 06:11:17;;;;;;;29.95;27.05;;;18.00;99.90;;;;;;4887879;29;20508;-78
2021/07/26 06:13:46;;;;;;;30.80;27.80;;;18.00;99.90;;;;;;4893406;29;20044;-77
2021/07/26 06:16:12;;;;;;;26.45;23.95;;;18.10;99.90;;;;;;4888077;29;20045;-75
2021/07/26 06:18:40;;;;;;;29.08;26.33;;;18.20;99.90;;;;;;4894049;29;20153;-78
2021/07/26 06:21:07;;;;;;;28.55;25.88;;;18.20;99.90;;;;;;4890116;29;20053;-79
2021/07/26 06:23:34;;;;;;;27.90;25.20;;;18.30;99.90;;;;;;4871724;29;20032;-77
2021/07/26 06:26:00;;;;;;;30.00;27.23;;;18.40;99.90;;;;;;4875836;29;21107;-79
2021/07/26 06:28:26;;;;;;;31.35;28.45;;;18.40;99.90;;;;;;4897491;29;20051;-80
2021/07/26 06:30:52;;;;;;;31.52;28.30;;;18.50;99.90;;;;;;4869546;29;20105;-79
2021/07/26 06:33:18;;;;;;;27.00;24.23;;;18.50;99.90;;;;;;4868273;29;20047;-82
2021/07/26 06:35:44;;;;;;;30.85;27.95;;;18.60;99.90;;;;;;4877839;29;20447;-84
2021/07/26 06:38:09;;;;;;;29.98;27.10;;;18.70;99.90;;;;;;4897578;29;20056;-85
2021/07/26 06:40:36;;;;;;;27.00;24.45;;;18.80;99.90;;;;;;4879131;29;20088;-82
2021/07/26 06:43:02;;;;;;;25.65;23.25;;;18.90;99.90;;;;;;4880623;29;20452;-83
2021/07/26 06:45:32;;;;;;;26.23;23.73;;;19.00;99.90;;;;;;4864282;29;20048;-82
2021/07/26 06:47:58;;;;;;;23.85;21.52;;;19.10;99.90;;;;;;4915669;29;20039;-83
2021/07/26 06:50:24;;;;;;;23.17;20.77;;;19.10;99.90;;;;;;4888002;29;20147;-83
2021/07/26 06:52:53;;;;;;;23.08;20.88;;;19.20;99.90;;;;;;4873958;29;20095;-82
2021/07/26 06:55:19;;;;;;;22.67;20.42;;;19.20;99.90;;;;;;4900570;29;20076;-82
2021/07/26 06:57:45;;;;;;;23.25;21.15;;;19.20;99.90;;;;;;4907981;29;20044;-81
2021/07/26 07:00:11;;;;;;;24.27;21.98;;;19.20;99.90;;;;;;4861998;29;20091;-80
2021/07/26 07:02:37;;;;;;;22.65;20.45;;;19.30;99.90;;;;;;4862991;29;20045;-81
2021/07/26 07:05:05;;;;;;;21.90;19.77;;;19.30;99.90;;;;;;4892036;29;20637;-80
2021/07/26 07:07:30;;;;;;;20.45;18.38;;;19.40;99.90;;;;;;4895932;29;20063;-81
2021/07/26 07:09:56;;;;;;;20.58;18.70;;;19.50;99.90;;;;;;4891119;29;20056;-80
2021/07/26 07:12:22;;;;;;;23.20;20.75;;;19.60;99.90;;;;;;4869667;29;20036;-81
2021/07/26 07:14:48;;;;;;;17.73;15.63;;;19.80;99.90;;;;;;4893790;29;20040;-81
2021/07/26 07:17:14;;;;;;;17.67;15.98;;;20.00;99.90;;;;;;4889181;29;20523;-81
2021/07/26 07:19:42;;;;;;;17.15;15.55;;;20.20;99.90;;;;;;4901719;29;20645;-81
2021/07/26 07:22:11;;;;;;;17.55;15.85;;;20.30;99.90;;;;;;4881670;29;20037;-81
2021/07/26 07:24:37;;;;;;;15.38;13.88;;;20.50;99.90;;;;;;4878740;29;20119;-83
2021/07/26 07:27:03;;;;;;;15.98;14.27;;;20.60;99.90;;;;;;4878192;29;20756;-81
2021/07/26 07:29:29;;;;;;;17.27;15.43;;;20.70;99.90;;;;;;4879743;29;20048;-81
2021/07/26 07:31:55;;;;;;;15.25;13.85;;;20.70;99.90;;;;;;4892354;29;21174;-81
2021/07/26 07:34:21;;;;;;;15.35;13.77;;;20.80;99.90;;;;;;4894049;29;20582;-82
2021/07/26 07:36:47;;;;;;;14.85;13.45;;;20.90;99.90;;;;;;4892695;29;20125;-81
2021/07/26 07:39:13;;;;;;;14.10;12.63;;;20.80;99.90;;;;;;4879125;29;20040;-81
2021/07/26 07:41:39;;;;;;;15.13;12.50;;;20.80;99.90;;;;;;4910135;29;20050;-81
2021/07/26 07:44:05;;;;;;;14.68;13.15;;;20.70;99.90;;;;;;4876900;29;20072;-83
2021/07/26 07:46:31;;;;;;;13.60;12.15;;;20.70;99.90;;;;;;4883252;29;20053;-82
2021/07/26 07:48:57;;;;;;;15.27;13.77;;;20.70;99.90;;;;;;4853060;29;20037;-82
2021/07/26 07:51:23;;;;;;;14.40;12.90;;;20.70;99.90;;;;;;4874982;29;20075;-80
2021/07/26 07:53:53;;;;;;;14.80;13.25;;;20.70;99.90;;;;;;4846895;29;20081;-79
2021/07/26 07:56:19;;;;;;;14.90;13.40;;;20.70;99.90;;;;;;4874368;29;20040;-79
2021/07/26 07:58:49;;;;;;;15.85;14.25;;;20.70;99.90;;;;;;4892088;29;20036;-79
2021/07/26 08:01:15;;;;;;;15.00;13.50;;;20.70;99.90;;;;;;4888351;29;20491;-79
2021/07/26 08:03:41;;;;;;;15.55;14.02;;;20.80;99.90;;;;;;4854494;29;20064;-77
2021/07/26 08:06:07;;;;;;;13.98;12.57;;;20.90;99.90;;;;;;4859926;29;20097;-79
2021/07/26 08:08:32;;;;;;;13.57;12.27;;;21.00;99.90;;;;;;4847900;29;20036;-79
2021/07/26 08:10:59;;;;;;;14.23;12.70;;;21.10;99.90;;;;;;4873652;29;20044;-79
2021/07/26 08:13:26;;;;;;;15.13;13.63;;;21.30;99.90;;;;;;4875993;29;20149;-79
2021/07/26 08:15:56;;;;;;;13.93;12.48;;;21.50;99.90;;;;;;4867324;29;20728;-81
2021/07/26 08:18:23;;;;;;;13.23;11.82;;;21.80;99.90;;;;;;4869858;29;20044;-78
2021/07/26 08:20:49;;;;;;;12.82;11.50;;;21.90;99.90;;;;;;4886266;29;20051;-78
2021/07/26 08:23:17;;;;;;;13.63;12.00;;;22.10;99.90;;;;;;4875247;29;20044;-78
2021/07/26 08:25:43;;;;;;;15.25;12.13;;;22.30;99.90;;;;;;4853241;29;20560;-77
2021/07/26 08:28:12;;;;;;;12.77;11.48;;;22.30;99.60;;;;;;4866865;29;20046;-77
2021/07/26 08:30:39;;;;;;;12.50;9.95;;;22.50;99.80;;;;;;4874678;29;20092;-75
2021/07/26 08:33:05;;;;;;;11.70;10.10;;;22.70;99.80;;;;;;4893038;29;20047;-78
2021/07/26 08:35:32;;;;;;;12.02;10.00;;;22.90;99.10;;;;;;4856763;29;20048;-77
2021/07/26 08:37:58;;;;;;;11.27;9.80;;;22.90;98.60;;;;;;4859678;29;20527;-76
2021/07/26 08:40:26;;;;;;;11.40;9.77;;;23.10;98.50;;;;;;4873783;29;20463;-76
2021/07/26 08:42:53;;;;;;;11.20;9.07;;;23.20;98.40;;;;;;4874131;29;20041;-77
2021/07/26 08:45:19;;;;;;;11.00;8.23;;;23.30;97.80;;;;;;4852769;29;20534;-78
2021/07/26 08:47:48;;;;;;;10.13;8.57;;;23.30;96.00;;;;;;4912507;29;20097;-77
2021/07/26 08:50:17;;;;;;;9.30;6.95;;;23.30;96.20;;;;;;4876086;29;20054;-75
2021/07/26 08:52:45;;;;;;;10.15;6.82;;;23.20;95.40;;;;;;4874607;29;20119;-75
2021/07/26 08:55:13;;;;;;;7.38;6.30;;;23.10;95.50;;;;;;4893302;29;20047;-79
2021/07/26 08:57:44;;;;;;;8.32;6.00;;;23.10;95.90;;;;;;4879879;29;20491;-77
2021/07/26 09:00:12;;;;;;;8.05;6.10;;;23.20;95.60;;;;;;4907176;29;20052;-79
2021/07/26 09:02:41;;;;;;;7.95;5.90;;;23.20;95.40;;;;;;4873607;29;20070;-77
2021/07/26 09:05:09;;;;;;;9.60;5.87;;;23.20;95.10;;;;;;4903504;29;20078;-79
2021/07/26 09:07:41;;;;;;;7.03;5.50;;;23.20;95.10;;;;;;4896306;29;20044;-76
2021/07/26 09:10:23;;;;;;;8.45;5.55;;;23.30;94.80;;;;;;4886643;29;20068;-78
2021/07/26 09:12:56;;;;;;;7.13;5.15;;;23.30;94.80;;;;;;4910136;29;20043;-77
2021/07/26 09:15:23;;;;;;;6.75;5.28;;;23.40;94.40;;;;;;4907045;29;20072;-78
2021/07/26 09:17:49;;;;;;;7.53;5.38;;;23.50;95.00;;;;;;4879559;29;20130;-78
2021/07/26 09:20:24;;;;;;;7.38;5.55;;;23.60;95.00;;;;;;4882614;29;20069;-77
2021/07/26 09:22:51;;;;;;;7.07;5.50;;;23.70;94.30;;;;;;4885003;29;20044;-77
2021/07/26 09:25:21;;;;;;;9.75;6.43;;;23.80;93.80;;;;;;4877794;29;20052;-76
2021/07/26 09:28:09;;;;;;;7.68;5.18;;;23.80;93.70;;;;;;4908985;29;20206;-78
2021/07/26 09:30:40;;;;;;;7.82;5.25;;;23.80;94.20;;;;;;4893505;29;20055;-77
2021/07/26 09:33:26;;;;;;;7.30;4.97;;;23.90;93.80;;;;;;4896765;29;20107;-79
2021/07/26 09:36:15;;;;;;;7.05;5.22;;;24.10;93.30;;;;;;4894761;29;20052;-79
2021/07/26 09:38:42;;;;;;;6.95;5.43;;;24.20;92.70;;;;;;4894274;29;20523;-75
2021/07/26 09:41:11;;;;;;;8.77;5.30;;;24.20;92.30;;;;;;4879661;29;20048;-78
2021/07/26 09:43:38;;;;;;;7.93;5.53;;;24.30;92.90;;;;;;4878001;29;20041;-77
2021/07/26 09:46:04;;;;;;;7.55;4.82;;;24.50;93.00;;;;;;4888028;29;20053;-77
2021/07/26 09:48:33;;;;;;;6.07;3.92;;;24.70;93.20;;;;;;4877742;29;20080;-80
2021/07/26 09:51:03;;;;;;;6.60;4.60;;;24.90;91.10;;;;;;4889807;29;20074;-79
2021/07/26 09:53:30;;;;;;;6.70;5.15;;;25.00;90.30;;;;;;4910526;29;20051;-78
2021/07/26 09:55:57;;;;;;;7.38;4.80;;;25.00;89.50;;;;;;4876843;29;20044;-82
2021/07/26 09:58:38;;;;;;;6.95;5.32;;;25.00;90.30;;;;;;4878383;29;20542;-79
2021/07/26 10:01:08;;;;;;;8.15;5.22;;;25.10;90.30;;;;;;4892835;29;20126;-79
2021/07/26 10:03:38;;;;;;;7.32;5.47;;;25.10;90.30;;;;;;4895113;29;20108;-80
2021/07/26 10:06:04;;;;;;;;;;;25.10;90.50;;;;;;4882099;29;20075;-80
2021/07/26 10:08:31;;;;;;;7.00;5.40;;;25.10;90.50;;;;;;4891825;29;19927;-80
2021/07/26 10:10:58;;;;;;;6.18;4.95;;;25.20;91.00;;;;;;4863040;29;20123;-79
2021/07/26 10:13:24;;;;;;;6.65;5.60;;;25.20;91.10;;;;;;4897952;29;20482;-77
2021/07/26 10:15:51;;;;;;;8.05;6.05;;;25.30;90.90;;;;;;4893254;29;20047;-79
2021/07/26 10:18:18;;;;;;;9.45;6.25;;;25.30;91.00;;;;;;4908149;29;20040;-79
2021/07/26 10:21:05;;;;;;;6.93;6.20;;;25.50;90.70;;;;;;4917066;29;20514;-79
2021/07/26 10:23:36;;;;;;;7.47;5.68;;;25.60;90.20;;;;;;4909232;29;20055;-77
2021/07/26 10:26:05;;;;;;;7.38;5.57;;;25.60;90.30;;;;;;4891123;29;20119;-78
2021/07/26 10:28:44;;;;;;;8.50;5.80;;;25.60;89.20;;;;;;4892946;29;20041;-78
2021/07/26 10:31:28;;;;;;;8.77;6.47;;;25.60;89.90;;;;;;4895341;29;20056;-78
2021/07/26 10:34:19;;;;;;;8.40;6.25;;;25.50;90.50;;;;;;4909965;29;20052;-78
2021/07/26 10:36:55;;;;;;;7.78;6.32;;;25.50;90.30;;;;;;4881486;29;20045;-78
2021/07/26 10:40:08;;;;;;;9.48;6.47;;;25.60;89.70;;;;;;4861139;29;20130;-79
2021/07/26 10:42:34;;;;;;;9.77;7.28;;;25.70;88.80;;;;;;4869993;29;20060;-79
2021/07/26 10:45:00;;;;;;;9.35;6.07;;;25.70;88.10;;;;;;4811818;29;20572;-80
2021/07/26 10:47:26;;;;;;;7.55;5.70;;;25.50;88.70;;;;;;4839986;29;20068;-78
2021/07/26 10:50:09;;;;;;;6.72;5.70;;;25.30;88.60;;;;;;4840708;29;20486;-78
2021/07/26 10:52:35;;;;;;;6.47;4.63;;;25.30;89.60;;;;;;4870239;29;20104;-80
2021/07/26 10:55:03;;;;;;;6.68;4.20;;;25.40;90.50;;;;;;4872408;29;20134;-78
2021/07/26 10:57:57;;;;;;;6.00;4.30;;;25.70;90.00;;;;;;4854013;29;20053;-82
2021/07/26 11:00:24;;;;;;;4.80;4.05;;;25.90;86.90;;;;;;4836307;29;20054;-79
2021/07/26 11:02:50;;;;;;;5.85;4.20;;;26.00;87.70;;;;;;4855707;29;20114;-80
2021/07/26 11:05:29;;;;;;;5.88;3.97;;;26.10;85.00;;;;;;4868871;29;20045;-80
2021/07/26 11:08:13;;;;;;;5.10;3.50;;;25.90;84.50;;;;;;4869351;29;20052;-80
2021/07/26 11:11:01;;;;;;;5.63;3.70;;;25.80;83.60;;;;;;4881172;29;20215;-78
2021/07/26 11:13:49;;;;;;;6.75;4.10;;;25.80;82.50;;;;;;4902633;29;20059;-79
2021/07/26 11:16:15;;;;;;;5.85;4.15;;;25.80;84.70;;;;;;4914704;29;20066;-79
2021/07/26 11:18:42;;;;;;;6.07;3.75;;;25.70;84.10;;;;;;4912475;29;20099;-80
2021/07/26 11:21:16;;;;;;;5.13;3.80;;;25.70;85.50;;;;;;4898758;29;20063;-81
2021/07/26 11:23:52;;;;;;;7.00;4.15;;;25.80;85.40;;;;;;4913068;29;20043;-81
2021/07/26 11:26:30;;;;;;;5.82;3.65;;;25.80;81.90;;;;;;4886467;29;20123;-82
2021/07/26 11:29:01;;;;;;;5.07;3.60;;;25.70;83.70;;;;;;4893009;29;20052;-80
2021/07/26 11:31:29;;;;;;;5.43;3.28;;;25.70;84.20;;;;;;4911658;29;20634;-83
2021/07/26 11:34:15;;;;;;;4.55;3.63;;;25.60;85.40;;;;;;4894354;29;20040;-80
2021/07/26 11:37:02;;;;;;;5.07;3.40;;;25.40;84.60;;;;;;4875419;29;20051;-80
2021/07/26 11:39:56;;;;;;;4.28;3.10;;;25.20;85.10;;;;;;4892067;29;20408;-82
2021/07/26 11:42:30;;;;;;;4.47;2.80;;;25.10;86.30;;;;;;4901972;29;20415;-81
2021/07/26 11:44:57;;;;;;;5.63;2.75;;;25.10;86.90;;;;;;4895326;29;20087;-84
2021/07/26 11:47:31;;;;;;;3.83;2.97;;;25.20;85.20;;;;;;4891650;29;20044;-83
2021/07/26 11:49:57;;;;;;;4.88;3.05;;;25.00;83.40;;;;;;4891298;29;20039;-80
2021/07/26 11:52:26;;;;;;;4.18;2.70;;;24.90;84.80;;;;;;4878649;29;20043;-79
2021/07/26 11:54:52;;;;;;;4.10;2.20;;;24.90;85.50;;;;;;4878009;29;20512;-80
2021/07/26 11:57:18;;;;;;;4.95;2.45;;;25.20;87.20;;;;;;4879080;29;20052;-80
2021/07/26 11:59:54;;;;;;;4.10;2.58;;;25.50;83.50;;;;;;4894904;29;20610;-78
2021/07/26 12:02:26;;;;;;;4.57;2.30;;;25.70;80.80;;;;;;4888386;29;20150;-81
2021/07/26 12:04:52;;;;;;;4.22;2.78;;;25.80;81.70;;;;;;4875800;29;20140;-80
2021/07/26 12:07:44;;;;;;;5.00;2.35;;;25.80;82.00;;;;;;4884654;29;20037;-79
2021/07/26 12:10:12;;;;;;;3.90;2.70;;;25.70;79.20;;;;;;4880526;29;20641;-78
2021/07/26 12:12:40;;;;;;;4.05;3.00;;;25.60;82.00;;;;;;4907129;29;20562;-77
2021/07/26 12:15:23;;;;;;;4.38;2.67;;;25.70;82.30;;;;;;4887393;29;20052;-78
2021/07/26 12:18:12;;;;;;;3.97;2.10;;;25.90;82.20;;;;;;4909712;29;20036;-83
2021/07/26 12:20:43;;;;;;;5.68;2.72;;;26.00;78.30;;;;;;4916629;29;20043;-83
2021/07/26 12:23:12;;;;;;;4.30;2.72;;;26.00;76.50;;;;;;4883901;29;20660;-79
2021/07/26 12:25:48;;;;;;;4.22;2.90;;;25.80;79.50;;;;;;4904788;29;20139;-79
2021/07/26 12:28:15;;;;;;;3.60;2.80;;;25.90;80.40;;;;;;4891692;29;20051;-79
2021/07/26 12:30:44;;;;;;;5.18;2.50;;;26.10;81.80;;;;;;4897653;29;20096;-78
2021/07/26 12:33:14;;;;;;;5.45;2.60;;;26.30;80.40;;;;;;4893447;29;20392;-80
2021/07/26 12:35:40;;;;;;;3.60;2.10;;;26.50;76.20;;;;;;4892486;29;20036;-79
2021/07/26 12:38:19;;;;;;;4.28;2.38;;;26.50;76.10;;;;;;4869887;29;20044;-77
2021/07/26 12:41:02;;;;;;;4.38;2.40;;;26.10;73.60;;;;;;4904298;29;20043;-80
2021/07/26 12:43:28;;;;;;;3.08;2.22;;;25.90;76.40;;;;;;4892691;29;20507;-86
2021/07/26 12:46:03;;;;;;;4.07;2.67;;;25.80;77.50;;;;;;4894648;29;20060;-85
2021/07/26 12:48:31;;;;;;;5.70;2.90;;;25.70;78.50;;;;;;4894268;29;20423;-87